createdAt,value
2023-05-16T00:01:09.278Z,11.31
2023-05-16T00:03:38.093Z,11.33
2023-05-16T00:06:07.682Z,11.45
2023-05-16T00:08:35.478Z,11.72
2023-05-16T00:11:03.465Z,11.71
2023-05-16T00:13:31.821Z,11.64
2023-05-16T00:16:02.496Z,11.54
2023-05-16T00:18:30.433Z,11.68
2023-05-16T00:20:58.614Z,11.76
2023-05-16T00:23:27.873Z,11.61
2023-05-16T00:25:56.040Z,11.17
2023-05-16T00:28:23.953Z,11.08
2023-05-16T00:30:51.790Z,11.31
2023-05-16T00:33:19.638Z,11.23
2023-05-16T00:35:47.475Z,11.28
2023-05-16T00:38:15.285Z,11.34
2023-05-16T00:40:44.393Z,11.27
2023-05-16T00:43:12.243Z,11.41
2023-05-16T00:45:40.207Z,11.48
2023-05-16T00:48:09.434Z,11.49
2023-05-16T00:50:38.701Z,11.43
2023-05-16T00:53:07.002Z,11.33
2023-05-16T00:55:34.849Z,11.36
2023-05-16T00:58:04.246Z,11.47
2023-05-16T01:00:32.441Z,11.40
2023-05-16T01:03:01.145Z,11.25
2023-05-16T01:05:30.310Z,11.18
2023-05-16T01:07:59.359Z,11.21
2023-05-16T01:10:33.782Z,11.34
2023-05-16T01:13:13.451Z,11.26
2023-05-16T01:15:48.522Z,11.08
2023-05-16T01:18:25.662Z,10.59
2023-05-16T01:20:59.687Z,10.74
2023-05-16T01:23:45.191Z,10.90
2023-05-16T01:26:23.068Z,11.16
2023-05-16T01:28:52.351Z,11.14
2023-05-16T01:31:20.947Z,11.26
2023-05-16T01:33:49.955Z,11.38
2023-05-16T01:36:26.429Z,11.47
2023-05-16T01:39:08.531Z,11.47
2023-05-16T01:41:48.678Z,11.44
2023-05-16T01:44:23.527Z,11.15
2023-05-16T01:46:57.659Z,11.11
2023-05-16T01:49:31.753Z,11.34
2023-05-16T01:52:03.141Z,11.33
2023-05-16T01:54:33.574Z,11.16
2023-05-16T01:57:08.308Z,10.94
2023-05-16T01:59:37.152Z,10.91
2023-05-16T02:02:05.045Z,10.87
2023-05-16T02:04:32.898Z,10.89
2023-05-16T02:07:01.984Z,10.86
2023-05-16T02:09:29.780Z,10.82
2023-05-16T02:11:57.561Z,11.02
2023-05-16T02:14:27.218Z,11.14
2023-05-16T02:16:55.284Z,11.19
2023-05-16T02:19:23.243Z,11.09
2023-05-16T02:21:51.607Z,11.05
2023-05-16T02:24:19.419Z,11.10
2023-05-16T02:26:47.266Z,11.07
2023-05-16T02:29:16.244Z,11.08
2023-05-16T02:31:45.542Z,11.15
2023-05-16T02:34:15.960Z,11.18
2023-05-16T02:36:43.846Z,11.33
2023-05-16T02:39:11.700Z,11.15
2023-05-16T02:41:40.273Z,11.06
2023-05-16T02:44:09.742Z,10.97
2023-05-16T02:46:37.690Z,11.21
2023-05-16T02:49:07.223Z,11.28
2023-05-16T02:51:35.098Z,11.16
2023-05-16T02:54:03.044Z,11.28
2023-05-16T02:56:30.960Z,11.32
2023-05-16T02:59:00.791Z,11.36
2023-05-16T03:01:28.832Z,11.33
2023-05-16T03:03:57.066Z,11.49
2023-05-16T03:06:26.394Z,11.44
2023-05-16T03:08:54.179Z,11.28
2023-05-16T03:11:24.111Z,10.94
2023-05-16T03:13:51.999Z,11.11
2023-05-16T03:16:19.869Z,11.01
2023-05-16T03:18:47.796Z,10.81
2023-05-16T03:21:15.930Z,10.73
2023-05-16T03:23:49.295Z,11.01
2023-05-16T03:26:17.378Z,11.22
2023-05-16T03:28:45.320Z,11.14
2023-05-16T03:31:13.172Z,11.09
2023-05-16T03:33:43.754Z,11.16
2023-05-16T03:36:11.845Z,10.99
2023-05-16T03:38:39.801Z,11.16
2023-05-16T03:41:11.055Z,11.14
2023-05-16T03:43:39.115Z,10.76
2023-05-16T03:46:06.992Z,10.28
2023-05-16T03:48:34.911Z,10.31
2023-05-16T03:51:02.693Z,10.48
2023-05-16T03:53:30.526Z,10.71
2023-05-16T03:55:58.328Z,10.69
2023-05-16T03:58:27.484Z,10.32
2023-05-16T04:00:55.316Z,10.28
2023-05-16T04:03:28.524Z,10.53
2023-05-16T04:05:57.293Z,10.57
2023-05-16T04:08:25.749Z,10.49
2023-05-16T04:10:53.571Z,10.35
2023-05-16T04:13:21.383Z,10.38
2023-05-16T04:15:50.557Z,10.22
2023-05-16T04:18:19.404Z,9.94
2023-05-16T04:20:47.616Z,10.11
2023-05-16T04:23:15.421Z,10.40
2023-05-16T04:25:43.228Z,10.80
2023-05-16T04:28:11.103Z,10.99
2023-05-16T04:30:38.945Z,11.18
2023-05-16T04:33:08.377Z,11.25
2023-05-16T04:35:37.664Z,11.40
2023-05-16T04:38:05.558Z,11.18
2023-05-16T04:40:33.990Z,10.76
2023-05-16T04:43:01.890Z,10.38
2023-05-16T04:45:29.800Z,10.27
2023-05-16T04:47:57.962Z,10.51
2023-05-16T04:50:27.248Z,10.81
2023-05-16T04:52:56.578Z,10.86
2023-05-16T04:55:24.731Z,10.76
2023-05-16T04:57:52.903Z,10.67
2023-05-16T05:00:23.899Z,11.04
2023-05-16T05:02:51.818Z,10.99
2023-05-16T05:05:20.228Z,10.56
2023-05-16T05:07:49.635Z,10.62
2023-05-16T05:10:17.555Z,10.59
2023-05-16T05:12:45.362Z,10.89
2023-05-16T05:15:13.514Z,11.21
2023-05-16T05:17:41.462Z,11.01
2023-05-16T05:20:10.439Z,11.09
2023-05-16T05:22:38.255Z,11.36
2023-05-16T05:25:08.355Z,11.30
2023-05-16T05:27:36.666Z,11.31
2023-05-16T05:30:05.407Z,10.98
2023-05-16T05:32:35.828Z,11.04
2023-05-16T05:35:03.861Z,10.87
2023-05-16T05:37:31.956Z,10.71
2023-05-16T05:39:59.753Z,10.62
2023-05-16T05:42:31.548Z,10.76
2023-05-16T05:44:59.323Z,10.82
2023-05-16T05:47:27.265Z,10.64
2023-05-16T05:49:55.170Z,10.52
2023-05-16T05:52:23.087Z,10.47
2023-05-16T05:54:57.961Z,10.41
2023-05-16T05:57:25.910Z,10.49
2023-05-16T05:59:55.118Z,10.59
2023-05-16T06:02:22.914Z,10.59
2023-05-16T06:04:50.760Z,10.61
2023-05-16T06:07:18.543Z,10.50
2023-05-16T06:09:46.780Z,10.31
2023-05-16T06:12:14.558Z,10.55
2023-05-16T06:14:42.317Z,10.67
2023-05-16T06:17:11.537Z,10.50
2023-05-16T06:19:39.447Z,10.68
2023-05-16T06:22:07.229Z,10.57
2023-05-16T06:24:38.034Z,10.61
2023-05-16T06:27:06.315Z,11.01
2023-05-16T06:29:34.160Z,11.09
2023-05-16T06:32:02.018Z,10.76
2023-05-16T06:34:32.231Z,10.81
2023-05-16T06:37:00.844Z,11.27
2023-05-16T06:39:28.645Z,11.09
2023-05-16T06:41:56.791Z,11.22
2023-05-16T06:44:24.979Z,11.63
2023-05-16T06:46:53.035Z,11.63
2023-05-16T06:49:20.973Z,11.62
2023-05-16T06:51:50.234Z,11.59
2023-05-16T06:54:18.176Z,11.62
2023-05-16T06:56:47.185Z,11.79
2023-05-16T06:59:15.131Z,11.84
2023-05-16T07:01:46.036Z,11.73
2023-05-16T07:04:14.274Z,12.30
2023-05-16T07:06:42.166Z,12.24
2023-05-16T07:09:11.493Z,12.35
2023-05-16T07:11:39.392Z,12.49
2023-05-16T07:14:07.201Z,12.69
2023-05-16T07:16:37.018Z,12.74
2023-05-16T07:19:05.029Z,13.02
2023-05-16T07:21:33.027Z,13.05
2023-05-16T07:24:01.335Z,13.00
2023-05-16T07:26:30.714Z,12.99
2023-05-16T07:28:58.980Z,12.75
2023-05-16T07:31:26.905Z,12.83
2023-05-16T07:33:54.817Z,12.71
2023-05-16T07:36:22.679Z,12.47
2023-05-16T07:38:50.585Z,12.40
2023-05-16T07:41:18.459Z,12.42
2023-05-16T07:43:47.658Z,12.41
2023-05-16T07:46:15.625Z,12.95
2023-05-16T07:48:43.772Z,13.06
2023-05-16T07:51:11.571Z,12.49
2023-05-16T07:53:39.519Z,12.27
2023-05-16T07:56:08.732Z,11.93
2023-05-16T07:58:39.063Z,12.24
2023-05-16T08:01:13.561Z,12.53
2023-05-16T08:03:41.537Z,11.90
2023-05-16T08:06:09.607Z,11.64
2023-05-16T08:08:38.023Z,11.22
2023-05-16T08:11:06.745Z,11.40
2023-05-16T08:13:34.687Z,11.40
2023-05-16T08:16:02.848Z,11.44
2023-05-16T08:18:32.497Z,11.93
2023-05-16T08:21:02.136Z,12.09
2023-05-16T08:23:30.156Z,11.86
2023-05-16T08:25:58.763Z,11.85
2023-05-16T08:28:26.600Z,11.50
2023-05-16T08:30:54.585Z,11.45
2023-05-16T08:33:22.510Z,11.49
2023-05-16T08:35:52.785Z,11.65
2023-05-16T08:38:20.885Z,11.35
2023-05-16T08:40:48.885Z,11.01
2023-05-16T08:43:16.827Z,10.90
2023-05-16T08:45:44.881Z,11.06
2023-05-16T08:48:12.964Z,11.14
2023-05-16T08:50:42.805Z,11.32
2023-05-16T08:53:15.908Z,11.65
2023-05-16T08:55:45.505Z,11.70
2023-05-16T08:58:14.764Z,11.97
2023-05-16T09:00:43.223Z,11.97
2023-05-16T09:03:11.596Z,11.82
2023-05-16T09:05:42.842Z,11.82
2023-05-16T09:08:12.606Z,11.86
2023-05-16T09:10:40.631Z,11.88
2023-05-16T09:13:08.543Z,12.08
2023-05-16T09:15:38.098Z,11.95
2023-05-16T09:18:06.093Z,12.08
2023-05-16T09:20:34.413Z,11.83
2023-05-16T09:23:03.325Z,12.07
2023-05-16T09:25:32.851Z,12.34
2023-05-16T09:28:03.398Z,12.48
2023-05-16T09:30:33.854Z,12.43
2023-05-16T09:33:02.505Z,11.96
2023-05-16T09:35:43.806Z,11.80
2023-05-16T09:38:17.074Z,11.75
2023-05-16T09:40:47.414Z,11.80
2023-05-16T09:43:18.017Z,11.69
2023-05-16T09:45:50.594Z,11.91
2023-05-16T09:48:19.074Z,11.73
2023-05-16T09:50:52.961Z,11.58
2023-05-16T09:53:27.585Z,11.66
2023-05-16T09:56:04.568Z,11.69
2023-05-16T09:58:33.268Z,11.84
2023-05-16T10:01:01.552Z,11.88
2023-05-16T10:03:30.547Z,11.88
2023-05-16T10:05:58.673Z,11.96
2023-05-16T10:08:27.784Z,11.82
2023-05-16T10:10:57.507Z,11.84
2023-05-16T10:13:30.817Z,11.84
2023-05-16T10:16:00.318Z,11.91
2023-05-16T10:18:31.576Z,11.98
2023-05-16T10:21:05.501Z,11.98
2023-05-16T10:23:34.841Z,12.07
2023-05-16T10:26:06.180Z,12.00
2023-05-16T10:28:36.688Z,12.08
2023-05-16T10:31:06.505Z,12.01
2023-05-16T10:33:34.569Z,11.83
2023-05-16T10:36:05.630Z,11.68
2023-05-16T10:38:34.853Z,11.66
2023-05-16T10:41:03.299Z,11.68
2023-05-16T10:43:33.373Z,11.39
2023-05-16T10:46:05.538Z,11.21
2023-05-16T10:48:34.979Z,11.17
2023-05-16T10:51:04.428Z,11.07
2023-05-16T10:53:34.330Z,10.89
2023-05-16T10:56:10.772Z,11.00
2023-05-16T10:58:46.017Z,10.80
2023-05-16T11:01:20.603Z,10.90
2023-05-16T11:04:06.899Z,10.86
2023-05-16T11:06:36.257Z,10.73
2023-05-16T11:09:10.318Z,10.81
2023-05-16T11:11:44.863Z,10.81
2023-05-16T11:14:23.243Z,10.86
2023-05-16T11:16:53.651Z,10.89
2023-05-16T11:19:31.989Z,10.98
2023-05-16T11:22:09.454Z,11.10
2023-05-16T11:24:39.114Z,11.10
2023-05-16T11:27:07.657Z,11.09
2023-05-16T11:29:37.385Z,11.00
2023-05-16T11:32:11.479Z,10.77
2023-05-16T11:34:39.766Z,10.58
2023-05-16T11:37:07.940Z,10.57
2023-05-16T11:39:36.000Z,10.63
2023-05-16T11:42:07.293Z,10.76
2023-05-16T11:44:38.534Z,10.81
2023-05-16T11:47:08.507Z,10.70
2023-05-16T11:49:36.811Z,10.72
2023-05-16T11:52:05.150Z,10.55
2023-05-16T11:54:34.600Z,10.58
2023-05-16T11:57:03.179Z,10.69
2023-05-16T11:59:31.303Z,10.81
2023-05-16T12:01:59.241Z,11.04
2023-05-16T12:04:29.687Z,11.20
2023-05-16T12:07:02.843Z,11.16
2023-05-16T12:09:30.893Z,11.11
2023-05-16T12:11:58.888Z,11.19
2023-05-16T12:14:27.571Z,11.39
2023-05-16T12:16:56.053Z,12.09
2023-05-16T12:19:24.431Z,12.49
2023-05-16T12:21:56.775Z,12.89
2023-05-16T12:24:30.991Z,13.04
2023-05-16T12:26:59.053Z,13.08
2023-05-16T12:29:26.989Z,13.30
2023-05-16T12:31:54.922Z,13.43
2023-05-16T12:34:23.388Z,13.67
2023-05-16T12:36:56.233Z,14.00
2023-05-16T12:39:24.169Z,14.04
2023-05-16T12:41:52.139Z,14.42
2023-05-16T12:44:23.787Z,14.50
2023-05-16T12:46:52.801Z,14.84
2023-05-16T12:49:22.721Z,14.64
2023-05-16T12:51:52.336Z,14.90
2023-05-16T12:54:23.035Z,14.86
2023-05-16T12:56:51.204Z,14.70
2023-05-16T12:59:20.320Z,14.71
2023-05-16T13:01:48.533Z,14.94
2023-05-16T13:04:19.544Z,14.75
2023-05-16T13:09:19.199Z,14.50
2023-05-16T13:11:48.477Z,14.94
2023-05-16T13:14:17.341Z,14.76
2023-05-16T13:16:45.634Z,14.81
2023-05-16T13:19:13.651Z,15.39
2023-05-16T13:21:41.754Z,15.42
2023-05-16T13:24:09.702Z,15.43
2023-05-16T13:26:37.533Z,15.21
2023-05-16T13:29:06.762Z,14.99
2023-05-16T13:31:34.623Z,14.93
2023-05-16T13:34:02.501Z,14.66
2023-05-16T13:36:41.461Z,14.33
2023-05-16T13:39:18.008Z,13.77
2023-05-16T13:41:47.361Z,12.55
2023-05-16T13:44:18.105Z,12.13
2023-05-16T13:46:46.317Z,11.73
2023-05-16T13:49:14.212Z,11.84
2023-05-16T13:51:42.026Z,11.68
2023-05-16T13:54:10.206Z,11.56
2023-05-16T13:56:38.108Z,11.36
2023-05-16T13:59:07.244Z,11.44
2023-05-16T14:01:37.525Z,11.25
2023-05-16T14:04:05.815Z,11.13
2023-05-16T14:06:33.682Z,11.18
2023-05-16T14:09:01.521Z,11.05
2023-05-16T14:11:29.786Z,10.96
2023-05-16T14:13:58.255Z,10.79
2023-05-16T14:16:26.225Z,10.80
2023-05-16T14:18:55.902Z,10.80
2023-05-16T14:21:23.801Z,10.78
2023-05-16T14:23:51.917Z,10.93
2023-05-16T14:26:22.589Z,11.11
2023-05-16T14:28:50.847Z,11.12
2023-05-16T14:31:18.970Z,11.06
2023-05-16T14:33:46.911Z,10.97
2023-05-16T14:36:16.288Z,10.95
2023-05-16T14:38:44.113Z,10.69
2023-05-16T14:41:11.995Z,10.76
2023-05-16T14:43:39.924Z,10.76
2023-05-16T14:46:07.863Z,10.85
2023-05-16T14:48:35.745Z,10.88
2023-05-16T14:51:03.590Z,10.78
2023-05-16T14:53:32.830Z,10.98
2023-05-16T14:56:02.724Z,10.83
2023-05-16T14:58:30.719Z,10.94
2023-05-16T15:00:58.607Z,10.81
2023-05-16T15:03:26.702Z,10.79
2023-05-16T15:05:54.726Z,10.92
2023-05-16T15:08:23.010Z,10.97
2023-05-16T15:10:52.212Z,11.07
2023-05-16T15:13:20.002Z,11.17
2023-05-16T15:15:47.890Z,11.16
2023-05-16T15:18:17.914Z,11.16
2023-05-16T15:20:45.949Z,11.08
2023-05-16T15:23:13.962Z,10.95
2023-05-16T15:25:41.797Z,11.02
2023-05-16T15:28:11.031Z,11.00
2023-05-16T15:30:38.938Z,11.09
2023-05-16T15:33:06.865Z,11.09
2023-05-16T15:35:34.705Z,11.06
2023-05-16T15:38:02.509Z,11.03
2023-05-16T15:40:30.354Z,11.19
2023-05-16T15:42:58.197Z,11.05
2023-05-16T15:45:27.604Z,11.06
2023-05-16T15:47:55.645Z,11.12
2023-05-16T15:50:23.771Z,10.95
2023-05-16T15:52:51.590Z,10.88
2023-05-16T15:55:19.546Z,10.82
2023-05-16T15:57:47.354Z,11.00
2023-05-16T16:00:16.438Z,11.00
2023-05-16T16:02:46.230Z,10.87
2023-05-16T16:05:14.438Z,10.87
2023-05-16T16:07:42.272Z,10.92
2023-05-16T16:10:11.388Z,10.74
2023-05-16T16:12:39.242Z,10.78
2023-05-16T16:15:08.176Z,10.78
2023-05-16T16:17:36.082Z,10.92
2023-05-16T16:20:06.047Z,11.09
2023-05-16T16:22:33.945Z,11.03
2023-05-16T16:25:01.758Z,11.06
2023-05-16T16:27:29.662Z,11.03
2023-05-16T16:29:57.746Z,10.93
2023-05-16T16:32:26.008Z,10.97
2023-05-16T16:34:53.875Z,10.81
2023-05-16T16:37:23.141Z,10.79
2023-05-16T16:39:50.989Z,10.70
2023-05-16T16:42:18.763Z,10.76
2023-05-16T16:44:46.601Z,10.69
2023-05-16T16:47:14.460Z,10.69
2023-05-16T16:49:42.386Z,10.54
2023-05-16T16:52:10.506Z,10.57
2023-05-16T16:54:39.806Z,10.70
2023-05-16T16:57:07.707Z,10.47
2023-05-16T16:59:35.864Z,10.48
2023-05-16T17:02:03.762Z,10.48
2023-05-16T17:04:31.710Z,10.58
2023-05-16T17:06:59.625Z,10.58
2023-05-16T17:09:27.586Z,10.58
2023-05-16T17:12:28.830Z,10.42
2023-05-16T17:14:57.254Z,10.67
2023-05-16T17:17:26.999Z,10.74
2023-05-16T17:19:54.927Z,10.79
2023-05-16T17:22:22.822Z,10.94
2023-05-16T17:24:50.685Z,10.84
2023-05-16T17:27:20.103Z,10.69
2023-05-16T17:29:47.944Z,10.85
2023-05-16T17:32:17.300Z,10.83
2023-05-16T17:34:47.348Z,10.79
2023-05-16T17:37:15.207Z,10.75
2023-05-16T17:39:43.081Z,10.71
2023-05-16T17:42:11.780Z,10.74
2023-05-16T17:44:41.943Z,10.77
2023-05-16T17:47:09.792Z,10.68
2023-05-16T17:49:37.733Z,10.63
2023-05-16T17:52:06.134Z,10.58
2023-05-16T17:54:34.162Z,10.71
2023-05-16T17:57:02.094Z,10.84
2023-05-16T17:59:30.037Z,10.85
2023-05-16T18:01:59.526Z,10.87
2023-05-16T18:04:27.635Z,10.90
2023-05-16T18:06:56.232Z,10.90
2023-05-16T18:09:24.251Z,10.83
2023-05-16T18:11:52.284Z,10.95
2023-05-16T18:14:20.374Z,10.87
2023-05-16T18:16:48.247Z,10.97
2023-05-16T18:19:17.567Z,10.99
2023-05-16T18:21:45.568Z,10.92
2023-05-16T18:24:13.700Z,10.81
2023-05-16T18:26:41.996Z,10.83
2023-05-16T18:29:10.776Z,10.75
2023-05-16T18:31:42.392Z,10.92
2023-05-16T18:34:11.457Z,10.88
2023-05-16T18:36:40.743Z,10.76
2023-05-16T18:39:10.575Z,10.62
2023-05-16T18:41:38.467Z,10.66
2023-05-16T18:44:06.404Z,10.73
2023-05-16T18:46:34.269Z,10.71
2023-05-16T18:49:02.248Z,10.54
2023-05-16T18:51:30.202Z,10.54
2023-05-16T18:53:59.425Z,10.42
2023-05-16T18:56:27.410Z,10.28
2023-05-16T18:58:55.666Z,10.12
2023-05-16T19:01:23.646Z,10.01
2023-05-16T19:03:51.865Z,9.98
2023-05-16T19:06:19.772Z,9.80
2023-05-16T19:08:48.440Z,9.76
2023-05-16T19:11:18.790Z,9.79
2023-05-16T19:13:47.113Z,9.76
2023-05-16T19:16:15.052Z,9.61
2023-05-16T19:18:43.046Z,9.56
2023-05-16T19:21:13.514Z,9.50
2023-05-16T19:23:41.587Z,9.56
2023-05-16T19:26:09.463Z,9.67
2023-05-16T19:28:40.772Z,9.54
2023-05-16T19:31:08.627Z,9.48
2023-05-16T19:33:36.969Z,9.41
2023-05-16T19:36:06.223Z,9.41
2023-05-16T19:38:34.058Z,9.39
2023-05-16T19:41:01.939Z,9.51
2023-05-16T19:43:30.016Z,9.50
2023-05-16T19:45:59.228Z,9.40
2023-05-16T19:48:27.921Z,9.37
2023-05-16T19:50:56.099Z,9.23
2023-05-16T19:53:23.938Z,9.27
2023-05-16T19:55:53.172Z,9.29
2023-05-16T19:58:21.058Z,9.32
2023-05-16T20:00:48.889Z,9.26
2023-05-16T20:03:18.158Z,9.16
2023-05-16T20:05:46.177Z,9.21
2023-05-16T20:08:14.107Z,9.24
2023-05-16T20:10:41.948Z,9.19
2023-05-16T20:13:09.766Z,9.04
2023-05-16T20:15:37.647Z,9.00
2023-05-16T20:18:05.771Z,9.07
2023-05-16T20:20:35.036Z,8.98
2023-05-16T20:23:03.676Z,9.03
2023-05-16T20:25:32.236Z,9.08
2023-05-16T20:28:00.128Z,9.08
2023-05-16T20:30:28.080Z,9.69
2023-05-16T20:32:56.078Z,9.61
2023-05-16T20:35:24.236Z,10.18
2023-05-16T20:37:53.524Z,9.56
2023-05-16T20:40:21.581Z,9.54
2023-05-16T20:42:49.448Z,9.67
2023-05-16T20:45:17.297Z,9.22
2023-05-16T20:47:45.313Z,9.15
2023-05-16T20:50:13.194Z,8.92
2023-05-16T20:52:41.192Z,8.80
2023-05-16T20:55:10.700Z,8.83
2023-05-16T20:57:38.526Z,8.75
2023-05-16T21:00:08.428Z,8.78
2023-05-16T21:02:36.316Z,8.60
2023-05-16T21:05:22.942Z,8.60
2023-05-16T21:07:52.287Z,8.57
2023-05-16T21:10:21.556Z,8.50
2023-05-16T21:12:50.149Z,8.63
2023-05-16T21:15:18.053Z,8.51
2023-05-16T21:17:46.091Z,8.63
2023-05-16T21:20:14.152Z,8.58
2023-05-16T21:22:42.525Z,8.61
2023-05-16T21:25:11.914Z,8.51
2023-05-16T21:27:41.193Z,8.44
2023-05-16T21:30:10.060Z,8.43
2023-05-16T21:32:37.985Z,8.35
2023-05-16T21:35:06.963Z,8.38
2023-05-16T21:37:34.875Z,8.34
2023-05-16T21:40:02.816Z,8.35
2023-05-16T21:42:30.880Z,8.38
2023-05-16T21:45:00.076Z,8.46
2023-05-16T21:47:27.949Z,8.49
2023-05-16T21:49:55.820Z,8.38
2023-05-16T21:52:23.626Z,8.51
2023-05-16T21:54:51.868Z,8.41
2023-05-16T21:57:20.445Z,8.42
2023-05-16T21:59:50.463Z,8.50
2023-05-16T22:02:22.987Z,8.51
2023-05-16T22:04:51.358Z,8.55
2023-05-16T22:07:19.248Z,8.64
2023-05-16T22:09:50.673Z,8.38
2023-05-16T22:12:18.553Z,8.39
2023-05-16T22:14:46.383Z,8.30
2023-05-16T22:17:14.259Z,8.24
2023-05-16T22:19:43.609Z,8.20
2023-05-16T22:22:12.338Z,8.19
2023-05-16T22:24:40.367Z,8.27
2023-05-16T22:27:08.402Z,8.32
2023-05-16T22:29:38.800Z,8.35
2023-05-16T22:32:08.450Z,8.32
2023-05-16T22:34:39.368Z,8.25
2023-05-16T22:37:09.155Z,8.23
2023-05-16T22:39:37.261Z,8.21
2023-05-16T22:42:05.711Z,8.21
2023-05-16T22:44:33.656Z,8.19
2023-05-16T22:47:01.613Z,8.15
2023-05-16T22:49:29.487Z,8.12
2023-05-16T22:51:57.374Z,8.09
2023-05-16T22:54:26.667Z,8.35
2023-05-16T22:56:54.506Z,8.25
2023-05-16T22:59:22.513Z,8.45
2023-05-16T23:01:50.450Z,8.64
2023-05-16T23:04:18.267Z,8.59
2023-05-16T23:06:46.134Z,8.46
2023-05-16T23:09:13.991Z,8.76
2023-05-16T23:11:43.156Z,9.00
2023-05-16T23:14:11.118Z,8.80
2023-05-16T23:16:38.917Z,8.65
2023-05-16T23:19:09.146Z,8.42
2023-05-16T23:21:37.554Z,8.46
2023-05-16T23:24:05.558Z,8.49
2023-05-16T23:26:33.431Z,8.43
2023-05-16T23:29:02.707Z,8.70
2023-05-16T23:31:30.631Z,8.56
2023-05-16T23:33:58.631Z,8.60
2023-05-16T23:36:26.502Z,8.37
2023-05-16T23:38:54.294Z,8.36
2023-05-16T23:41:22.149Z,8.65
2023-05-16T23:43:50.013Z,8.69
2023-05-16T23:46:19.216Z,8.49
2023-05-16T23:48:47.094Z,8.37
2023-05-16T23:51:15.025Z,8.43
2023-05-16T23:53:42.839Z,8.54
2023-05-16T23:56:10.671Z,8.60
2023-05-16T23:58:38.479Z,8.71
